createdAt,value
2016-05-09T00:00:24.715Z,0
2016-05-09T00:01:24.906Z,0
2016-05-09T00:02:24.800Z,0
2016-05-09T00:03:24.834Z,0
2016-05-09T00:04:24.868Z,0
2016-05-09T00:05:25.057Z,0
2016-05-09T00:06:25.107Z,0
2016-05-09T00:07:25.142Z,0
2016-05-09T00:08:25.020Z,0
2016-05-09T00:09:25.225Z,0
2016-05-09T00:10:25.259Z,0
2016-05-09T00:11:25.136Z,0
2016-05-09T00:12:25.170Z,0
2016-05-09T00:13:25.798Z,0
2016-05-09T00:14:25.411Z,0
2016-05-09T00:15:25.428Z,0
2016-05-09T00:16:25.322Z,0
2016-05-09T00:17:25.511Z,0
2016-05-09T00:18:25.577Z,0
2016-05-09T00:19:25.424Z,0
2016-05-09T00:20:25.645Z,0
2016-05-09T00:21:25.539Z,0
2016-05-09T00:22:25.400Z,0
2016-05-09T00:23:25.591Z,0
2016-05-09T00:24:25.780Z,0
2016-05-09T00:25:25.830Z,0
2016-05-09T00:26:25.895Z,0
2016-05-09T00:27:25.883Z,0
2016-05-09T00:28:25.791Z,0
2016-05-09T00:29:25.982Z,0
2016-05-09T00:30:26.016Z,0
2016-05-09T00:31:26.049Z,0
2016-05-09T00:32:26.084Z,0
2016-05-09T00:33:25.962Z,0
2016-05-09T00:34:26.167Z,0
2016-05-09T00:35:26.201Z,0
2016-05-09T00:36:26.251Z,0
2016-05-09T00:37:26.268Z,0
2016-05-09T00:38:26.318Z,0
2016-05-09T00:39:26.024Z,0
2016-05-09T00:40:26.090Z,0
2016-05-09T00:41:26.420Z,0
2016-05-09T00:42:26.486Z,0
2016-05-09T00:43:28.004Z,0
2016-05-09T00:44:26.382Z,0
2016-05-09T00:45:26.571Z,0
2016-05-09T00:46:26.465Z,0
2016-05-09T00:47:26.655Z,0
2016-05-09T00:48:26.533Z,0
2016-05-09T00:49:26.738Z,0
2016-05-09T00:50:26.758Z,0
2016-05-09T00:51:26.635Z,0
2016-05-09T00:52:26.903Z,0
2016-05-09T00:53:26.718Z,0
2016-05-09T00:54:26.924Z,0
2016-05-09T00:55:26.802Z,0
2016-05-09T00:56:26.976Z,0
2016-05-09T00:57:26.869Z,0
2016-05-09T00:58:26.763Z,0
2016-05-09T00:59:27.000Z,0
2016-05-09T01:00:26.971Z,0
2016-05-09T01:01:27.193Z,0
2016-05-09T01:02:27.055Z,0
2016-05-09T01:03:27.245Z,0
2016-05-09T01:04:27.138Z,0
2016-05-09T01:05:27.329Z,0
2016-05-09T01:06:27.378Z,0
2016-05-09T01:07:27.396Z,0
2016-05-09T01:08:27.273Z,0
2016-05-09T01:09:27.465Z,0
2016-05-09T01:10:27.515Z,0
2016-05-09T01:11:27.564Z,0
2016-05-09T01:12:27.425Z,0
2016-05-09T01:13:27.475Z,0
2016-05-09T01:14:27.524Z,0
2016-05-09T01:15:27.543Z,0
2016-05-09T01:16:27.734Z,0
2016-05-09T01:17:27.783Z,0
2016-05-09T01:18:27.661Z,0
2016-05-09T01:19:27.553Z,0
2016-05-09T01:20:27.884Z,0
2016-05-09T01:21:27.933Z,0
2016-05-09T01:22:27.984Z,0
2016-05-09T01:23:27.861Z,0
2016-05-09T01:24:28.052Z,0
2016-05-09T01:25:28.085Z,0
2016-05-09T01:26:28.104Z,0
2016-05-09T01:27:27.997Z,0
2016-05-09T01:28:28.203Z,0
2016-05-09T01:29:29.721Z,0
2016-05-09T01:30:28.255Z,0
2016-05-09T01:31:28.320Z,0
2016-05-09T01:32:28.338Z,0
2016-05-09T01:33:28.216Z,0
2016-05-09T01:34:28.251Z,0
2016-05-09T01:35:28.659Z,0
2016-05-09T01:36:28.334Z,0
2016-05-09T01:37:28.523Z,0
2016-05-09T01:38:28.558Z,0
2016-05-09T01:39:28.593Z,0
2016-05-09T01:40:28.485Z,0
2016-05-09T01:41:28.676Z,0
2016-05-09T01:42:28.725Z,0
2016-05-09T01:43:28.758Z,0
2016-05-09T01:44:29.418Z,0
2016-05-09T01:45:28.826Z,0
2016-05-09T01:46:28.861Z,0
2016-05-09T01:47:28.911Z,0
2016-05-09T01:48:28.944Z,0
2016-05-09T01:49:28.822Z,0
2016-05-09T01:50:28.855Z,0
2016-05-09T01:51:28.906Z,0
2016-05-09T01:52:28.924Z,0
2016-05-09T01:53:28.958Z,0
2016-05-09T01:54:29.179Z,0
2016-05-09T01:55:29.197Z,0
2016-05-09T01:56:29.091Z,0
2016-05-09T01:57:29.266Z,0
2016-05-09T01:58:29.315Z,0
2016-05-09T01:59:29.364Z,0
2016-05-09T02:00:29.382Z,0
2016-05-09T02:01:29.276Z,0
2016-05-09T02:02:29.138Z,0
2016-05-09T02:03:29.344Z,0
2016-05-09T02:04:29.535Z,0
2016-05-09T02:05:29.584Z,0
2016-05-09T02:06:29.445Z,0
2016-05-09T02:07:29.651Z,0
2016-05-09T02:08:29.686Z,0
2016-05-09T02:09:29.563Z,0
2016-05-09T02:10:29.754Z,0
2016-05-09T02:11:29.803Z,0
2016-05-09T02:12:29.837Z,0
2016-05-09T02:13:29.870Z,0
2016-05-09T02:14:29.609Z,0
2016-05-09T02:15:29.782Z,0
2016-05-09T02:16:30.051Z,0
2016-05-09T02:17:30.037Z,0
2016-05-09T02:18:30.056Z,0
2016-05-09T02:19:30.105Z,0
2016-05-09T02:20:30.124Z,0
2016-05-09T02:21:30.173Z,0
2016-05-09T02:22:30.208Z,0
2016-05-09T02:23:30.451Z,0
2016-05-09T02:24:30.298Z,0
2016-05-09T02:25:30.159Z,0
2016-05-09T02:26:30.350Z,0
2016-05-09T02:27:30.244Z,0
2016-05-09T02:28:30.121Z,0
2016-05-09T02:29:30.576Z,0
2016-05-09T02:30:30.517Z,0
2016-05-09T02:31:30.551Z,0
2016-05-09T02:32:30.570Z,0
2016-05-09T02:33:30.604Z,0
2016-05-09T02:34:30.637Z,0
2016-05-09T02:35:30.546Z,0
2016-05-09T02:36:30.564Z,0
2016-05-09T02:37:30.614Z,0
2016-05-09T02:38:30.492Z,0
2016-05-09T02:39:30.839Z,0
2016-05-09T02:40:30.872Z,0
2016-05-09T02:41:30.890Z,0
2016-05-09T02:42:30.972Z,0
2016-05-09T02:43:30.692Z,0
2016-05-09T02:44:31.398Z,0
2016-05-09T02:45:30.948Z,0
2016-05-09T02:46:30.778Z,0
2016-05-09T02:47:31.141Z,0
2016-05-09T02:48:31.175Z,0
2016-05-09T02:49:31.209Z,0
2016-05-09T02:50:31.086Z,0
2016-05-09T02:51:31.292Z,0
2016-05-09T02:52:31.310Z,0
2016-05-09T02:53:31.376Z,0
2016-05-09T02:54:31.237Z,0
2016-05-09T02:55:31.444Z,0
2016-05-09T02:56:31.305Z,0
2016-05-09T02:57:31.496Z,0
2016-05-09T02:58:31.545Z,0
2016-05-09T02:59:32.049Z,0
2016-05-09T03:00:31.613Z,0
2016-05-09T03:01:31.335Z,0
2016-05-09T03:02:31.525Z,0
2016-05-09T03:03:31.731Z,0
2016-05-09T03:04:31.623Z,0
2016-05-09T03:05:31.814Z,0
2016-05-09T03:06:31.848Z,0
2016-05-09T03:07:31.710Z,0
2016-05-09T03:08:31.916Z,0
2016-05-09T03:09:31.951Z,0
2016-05-09T03:10:32.000Z,0
2016-05-09T03:11:32.017Z,0
2016-05-09T03:12:31.895Z,0
2016-05-09T03:13:32.086Z,0
2016-05-09T03:14:32.604Z,0
2016-05-09T03:15:32.013Z,0
2016-05-09T03:16:32.219Z,0
2016-05-09T03:17:32.237Z,0
2016-05-09T03:18:32.286Z,0
2016-05-09T03:19:32.321Z,0
2016-05-09T03:20:32.355Z,0
2016-05-09T03:21:32.405Z,0
2016-05-09T03:22:32.438Z,0
2016-05-09T03:23:32.472Z,0
2016-05-09T03:24:32.505Z,0
2016-05-09T03:25:32.383Z,0
2016-05-09T03:26:32.418Z,0
2016-05-09T03:27:32.608Z,0
2016-05-09T03:28:32.658Z,0
2016-05-09T03:29:32.769Z,0
2016-05-09T03:30:32.554Z,0
2016-05-09T03:31:32.759Z,0
2016-05-09T03:32:32.793Z,0
2016-05-09T03:33:32.686Z,0
2016-05-09T03:34:32.862Z,0
2016-05-09T03:35:32.895Z,0
2016-05-09T03:36:32.945Z,0
2016-05-09T03:37:32.837Z,0
2016-05-09T03:38:33.013Z,0
2016-05-09T03:39:32.921Z,0
2016-05-09T03:40:33.221Z,5
2016-05-09T03:41:32.989Z,5
2016-05-09T03:42:33.195Z,5
2016-05-09T03:43:33.056Z,5
2016-05-09T03:44:34.185Z,5
2016-05-09T03:45:33.281Z,5
2016-05-09T03:46:33.315Z,5
2016-05-09T03:47:33.349Z,5
2016-05-09T03:48:33.383Z,5
2016-05-09T03:49:40.198Z,10
2016-05-09T03:50:33.497Z,10
2016-05-09T03:51:33.360Z,10
2016-05-09T03:52:33.535Z,10
2016-05-09T03:53:33.568Z,10
2016-05-09T03:54:33.586Z,10
2016-05-09T03:55:33.496Z,10
2016-05-09T03:56:33.530Z,15
2016-05-09T03:57:33.719Z,15
2016-05-09T03:58:33.754Z,15
2016-05-09T03:59:33.974Z,15
2016-05-09T04:00:33.666Z,15
2016-05-09T04:01:33.871Z,15
2016-05-09T04:02:33.905Z,20
2016-05-09T04:03:33.985Z,20
2016-05-09T04:04:33.973Z,20
2016-05-09T04:05:34.006Z,20
2016-05-09T04:06:34.041Z,20
2016-05-09T04:07:33.918Z,25
2016-05-09T04:08:33.968Z,25
2016-05-09T04:09:34.001Z,25
2016-05-09T04:10:34.192Z,25
2016-05-09T04:11:33.928Z,30
2016-05-09T04:12:34.260Z,30
2016-05-09T04:13:34.295Z,30
2016-05-09T04:14:34.453Z,30
2016-05-09T04:15:34.377Z,30
2016-05-09T04:16:34.411Z,35
2016-05-09T04:17:34.430Z,35
2016-05-09T04:18:34.480Z,35
2016-05-09T04:19:34.514Z,35
2016-05-09T04:20:34.391Z,40
2016-05-09T04:21:34.440Z,45
2016-05-09T04:22:34.474Z,45
2016-05-09T04:23:34.508Z,45
2016-05-09T04:24:34.558Z,50
2016-05-09T04:25:34.733Z,50
2016-05-09T04:26:34.782Z,55
2016-05-09T04:27:34.816Z,60
2016-05-09T04:28:34.694Z,65
2016-05-09T04:29:35.243Z,75
2016-05-09T04:30:34.965Z,80
2016-05-09T04:31:34.796Z,90
2016-05-09T04:32:35.001Z,95
2016-05-09T04:33:35.051Z,105
2016-05-09T04:34:35.085Z,110
2016-05-09T04:35:34.946Z,110
2016-05-09T04:36:35.137Z,115
2016-05-09T04:37:35.031Z,120
2016-05-09T04:38:35.205Z,120
2016-05-09T04:39:35.254Z,120
2016-05-09T04:40:34.976Z,115
2016-05-09T04:41:35.322Z,100
2016-05-09T04:42:35.372Z,105
2016-05-09T04:43:35.390Z,100
2016-05-09T04:44:35.628Z,100
2016-05-09T04:45:35.318Z,100
2016-05-09T04:46:35.367Z,100
2016-05-09T04:47:35.385Z,100
2016-05-09T04:48:35.575Z,100
2016-05-09T04:49:35.501Z,100
2016-05-09T04:50:35.861Z,100
2016-05-09T04:51:35.694Z,100
2016-05-09T04:52:35.727Z,100
2016-05-09T04:53:35.605Z,100
2016-05-09T04:54:35.638Z,100
2016-05-09T04:55:35.845Z,100
2016-05-09T04:56:35.722Z,100
2016-05-09T04:57:35.600Z,100
2016-05-09T04:58:35.977Z,100
2016-05-09T04:59:37.511Z,100
2016-05-09T05:00:36.045Z,100
2016-05-09T05:01:35.767Z,100
2016-05-09T05:02:35.957Z,100
2016-05-09T05:03:36.147Z,100
2016-05-09T05:04:36.196Z,100
2016-05-09T05:05:35.918Z,100
2016-05-09T05:06:36.265Z,100
2016-05-09T05:07:36.299Z,100
2016-05-09T05:08:36.176Z,100
2016-05-09T05:09:36.226Z,100
2016-05-09T05:10:36.401Z,100
2016-05-09T05:11:36.340Z,100
2016-05-09T05:12:36.515Z,100
2016-05-09T05:13:36.378Z,105
2016-05-09T05:14:36.395Z,105
2016-05-09T05:15:36.617Z,105
2016-05-09T05:16:36.650Z,105
2016-05-09T05:17:36.529Z,105
2016-05-09T05:18:36.562Z,105
2016-05-09T05:19:36.612Z,105
2016-05-09T05:20:36.802Z,105
2016-05-09T05:21:36.680Z,110
2016-05-09T05:22:36.869Z,110
2016-05-09T05:23:36.748Z,110
2016-05-09T05:24:36.954Z,110
2016-05-09T05:25:36.972Z,110
2016-05-09T05:26:37.005Z,110
2016-05-09T05:27:36.915Z,110
2016-05-09T05:28:36.949Z,110
2016-05-09T05:29:37.014Z,110
2016-05-09T05:30:37.174Z,115
2016-05-09T05:31:37.207Z,115
2016-05-09T05:32:37.256Z,115
2016-05-09T05:33:37.290Z,115
2016-05-09T05:34:37.324Z,115
2016-05-09T05:35:37.390Z,120
2016-05-09T05:36:37.408Z,120
2016-05-09T05:37:37.442Z,120
2016-05-09T05:38:37.335Z,120
2016-05-09T05:39:37.509Z,120
2016-05-09T05:40:37.543Z,120
2016-05-09T05:41:37.609Z,120
2016-05-09T05:42:37.627Z,125
2016-05-09T05:43:37.661Z,125
2016-05-09T05:44:37.711Z,125
2016-05-09T05:45:37.745Z,125
2016-05-09T05:46:37.482Z,125
2016-05-09T05:47:37.812Z,120
2016-05-09T05:48:37.847Z,115
2016-05-09T05:49:37.583Z,115
2016-05-09T05:50:37.633Z,120
2016-05-09T05:51:37.979Z,125
2016-05-09T05:52:38.013Z,120
2016-05-09T05:53:38.064Z,120
2016-05-09T05:54:38.081Z,120
2016-05-09T05:55:37.975Z,120
2016-05-09T05:56:38.149Z,120
2016-05-09T05:57:38.042Z,120
2016-05-09T05:58:38.232Z,120
2016-05-09T05:59:38.110Z,120
2016-05-09T06:00:38.187Z,120
2016-05-09T06:01:38.297Z,120
2016-05-09T06:02:38.546Z,120
2016-05-09T06:03:38.280Z,120
2016-05-09T06:04:38.687Z,120
2016-05-09T06:05:38.736Z,120
2016-05-09T06:06:38.646Z,120
2016-05-09T06:07:38.850Z,120
2016-05-09T06:08:38.900Z,120
2016-05-09T06:09:38.794Z,120
2016-05-09T06:10:38.849Z,120
2016-05-09T06:11:39.045Z,120
2016-05-09T06:12:39.085Z,120
2016-05-09T06:13:40.599Z,120
2016-05-09T06:14:39.013Z,140
2016-05-09T06:15:39.065Z,130
2016-05-09T06:16:39.100Z,125
2016-05-09T06:17:39.168Z,125
2016-05-09T06:18:39.345Z,120
2016-05-09T06:19:39.380Z,120
2016-05-09T06:20:39.414Z,145
2016-05-09T06:21:39.449Z,125
2016-05-09T06:22:39.515Z,125
2016-05-09T06:23:39.737Z,120
2016-05-09T06:24:39.569Z,120
2016-05-09T06:25:39.634Z,120
2016-05-09T06:26:39.653Z,125
2016-05-09T06:27:39.687Z,125
2016-05-09T06:28:39.736Z,125
2016-05-09T06:29:39.676Z,125
2016-05-09T06:30:39.633Z,125
2016-05-09T06:31:39.838Z,135
2016-05-09T06:32:39.871Z,165
2016-05-09T06:33:39.749Z,240
2016-05-09T06:34:39.955Z,125
2016-05-09T06:35:39.833Z,125
2016-05-09T06:36:39.867Z,125
2016-05-09T06:37:40.088Z,125
2016-05-09T06:38:39.950Z,125
2016-05-09T06:39:40.172Z,130
2016-05-09T06:40:40.159Z,145
2016-05-09T06:41:42.802Z,145
2016-05-09T06:42:40.118Z,140
2016-05-09T06:43:40.135Z,135
2016-05-09T06:44:40.671Z,135
2016-05-09T06:45:40.376Z,130
2016-05-09T06:46:40.269Z,150
2016-05-09T06:47:40.459Z,160
2016-05-09T06:48:40.477Z,135
2016-05-09T06:49:40.371Z,130
2016-05-09T06:50:40.404Z,130
2016-05-09T06:51:40.595Z,130
2016-05-09T06:52:40.644Z,130
2016-05-09T06:53:40.678Z,130
2016-05-09T06:54:40.556Z,130
2016-05-09T06:55:40.637Z,130
2016-05-09T06:56:40.640Z,140
2016-05-09T06:57:40.673Z,145
2016-05-09T06:58:40.879Z,140
2016-05-09T06:59:41.211Z,135
2016-05-09T07:00:40.947Z,140
2016-05-09T07:01:40.981Z,135
2016-05-09T07:02:41.030Z,135
2016-05-09T07:03:41.080Z,135
2016-05-09T07:04:40.942Z,135
2016-05-09T07:05:41.147Z,140
2016-05-09T07:06:41.042Z,140
2016-05-09T07:07:41.200Z,135
2016-05-09T07:08:41.110Z,140
2016-05-09T07:09:41.299Z,140
2016-05-09T07:10:41.349Z,140
2016-05-09T07:11:41.368Z,145
2016-05-09T07:12:41.261Z,140
2016-05-09T07:13:41.295Z,140
2016-05-09T07:14:41.844Z,140
2016-05-09T07:15:41.379Z,140
2016-05-09T07:16:41.412Z,140
2016-05-09T07:17:41.602Z,140
2016-05-09T07:18:41.496Z,140
2016-05-09T07:19:41.701Z,160
2016-05-09T07:20:41.720Z,175
2016-05-09T07:21:41.770Z,160
2016-05-09T07:22:41.647Z,145
2016-05-09T07:23:41.837Z,145
2016-05-09T07:24:41.715Z,145
2016-05-09T07:25:41.952Z,160
2016-05-09T07:26:41.954Z,150
2016-05-09T07:27:41.864Z,145
2016-05-09T07:28:42.117Z,150
2016-05-09T07:29:42.088Z,150
2016-05-09T07:30:42.106Z,150
2016-05-09T07:31:42.155Z,185
2016-05-09T07:32:42.175Z,240
2016-05-09T07:33:42.223Z,170
2016-05-09T07:34:42.133Z,155
2016-05-09T07:35:42.151Z,200
2016-05-09T07:36:42.185Z,240
2016-05-09T07:37:42.234Z,270
2016-05-09T07:38:42.409Z,220
2016-05-09T07:39:42.302Z,225
2016-05-09T07:40:42.492Z,270
2016-05-09T07:41:42.558Z,235
2016-05-09T07:42:42.591Z,215
2016-05-09T07:43:43.750Z,190
2016-05-09T07:44:42.675Z,205
2016-05-09T07:45:42.537Z,335
2016-05-09T07:46:42.743Z,700
2016-05-09T07:47:42.793Z,355
2016-05-09T07:48:42.763Z,275
2016-05-09T07:49:42.689Z,335
2016-05-09T07:50:42.754Z,285
2016-05-09T07:51:42.949Z,665
2016-05-09T07:52:42.827Z,1385
2016-05-09T07:53:43.532Z,1395
2016-05-09T07:54:43.066Z,1370
2016-05-09T07:55:43.110Z,1355
2016-05-09T07:56:43.019Z,1375
2016-05-09T07:57:43.224Z,1315
2016-05-09T07:58:43.619Z,1355
2016-05-09T07:59:43.261Z,1395
2016-05-09T08:00:43.295Z,1435
2016-05-09T08:01:43.344Z,1455
2016-05-09T08:02:43.394Z,1505
2016-05-09T08:03:43.428Z,1460
2016-05-09T08:04:47.087Z,1475
2016-05-09T08:06:17.559Z,1455
2016-05-09T08:07:25.201Z,1450
2016-05-09T08:07:54.845Z,1455
2016-05-09T08:09:00.567Z,1460
2016-05-09T08:10:03.320Z,1430
2016-05-09T08:10:43.729Z,1420
2016-05-09T08:12:00.028Z,1410
2016-05-09T08:12:43.687Z,1435
2016-05-09T08:13:43.783Z,1440
2016-05-09T08:14:43.786Z,1470
2016-05-09T08:15:44.054Z,1440
2016-05-09T08:16:44.010Z,1440
2016-05-09T08:17:44.060Z,1500
2016-05-09T08:18:44.344Z,1565
2016-05-09T08:19:44.142Z,1570
2016-05-09T08:20:43.881Z,1535
2016-05-09T08:21:44.242Z,1470
2016-05-09T08:22:44.260Z,1450
2016-05-09T08:23:44.670Z,1430
2016-05-09T08:24:44.236Z,1395
2016-05-09T08:25:44.253Z,1370
2016-05-09T08:26:44.459Z,1270
2016-05-09T08:27:44.196Z,1180
2016-05-09T08:28:44.402Z,1115
2016-05-09T08:29:44.295Z,1115
2016-05-09T08:30:44.657Z,1185
2016-05-09T08:31:44.535Z,1335
2016-05-09T08:32:44.757Z,1475
2016-05-09T08:33:44.634Z,1605
2016-05-09T08:34:44.699Z,1655
2016-05-09T08:35:44.577Z,1625
2016-05-09T08:36:44.768Z,1575
2016-05-09T08:37:44.816Z,1480
2016-05-09T08:38:45.037Z,1390
2016-05-09T08:39:45.071Z,1360
2016-05-09T08:40:45.154Z,1415
2016-05-09T08:41:44.859Z,1520
2016-05-09T08:42:45.221Z,1670
2016-05-09T08:43:45.254Z,1735
2016-05-09T08:44:45.289Z,1750
2016-05-09T08:45:45.198Z,1725
2016-05-09T08:46:45.387Z,1740
2016-05-09T08:47:45.437Z,1775
2016-05-09T08:48:45.503Z,1805
2016-05-09T08:49:45.552Z,1815
2016-05-09T08:50:45.601Z,1800
2016-05-09T08:51:45.667Z,1645
2016-05-09T08:52:45.701Z,990
2016-05-09T08:53:45.734Z,780
2016-05-09T08:54:45.644Z,490
2016-05-09T08:55:45.834Z,450
2016-05-09T08:56:45.727Z,475
2016-05-09T08:57:45.777Z,935
2016-05-09T08:58:46.139Z,420
2016-05-09T08:59:45.860Z,1605
2016-05-09T09:00:46.066Z,1685
2016-05-09T09:01:46.116Z,1740
2016-05-09T09:02:46.180Z,1795
2016-05-09T09:03:46.058Z,1270
2016-05-09T09:04:46.249Z,1205
2016-05-09T09:05:46.298Z,680
2016-05-09T09:06:46.332Z,1335
2016-05-09T09:07:46.396Z,1250
2016-05-09T09:08:46.307Z,1685
2016-05-09T09:09:46.481Z,1725
2016-05-09T09:10:46.529Z,1550
2016-05-09T09:11:46.579Z,1110
2016-05-09T09:12:46.146Z,1205
2016-05-09T09:13:46.695Z,975
2016-05-09T09:14:46.713Z,1750
2016-05-09T09:15:46.607Z,1775
2016-05-09T09:16:46.812Z,1860
2016-05-09T09:17:46.846Z,1870
2016-05-09T09:18:46.912Z,1860
2016-05-09T09:19:46.789Z,1845
2016-05-09T09:20:46.995Z,1855
2016-05-09T09:21:46.872Z,1810
2016-05-09T09:22:47.078Z,1775
2016-05-09T09:23:47.128Z,1725
2016-05-09T09:24:47.162Z,1705
2016-05-09T09:25:47.258Z,1700
2016-05-09T09:26:47.105Z,1705
2016-05-09T09:27:47.358Z,1680
2016-05-09T09:28:47.250Z,1740
2016-05-09T09:29:47.253Z,1815
2016-05-09T09:30:47.458Z,1870
2016-05-09T09:31:47.353Z,1905
2016-05-09T09:32:47.543Z,1915
2016-05-09T09:33:47.436Z,1885
2016-05-09T09:34:47.658Z,1885
2016-05-09T09:35:47.551Z,1875
2016-05-09T09:36:47.585Z,1890
2016-05-09T09:37:47.791Z,1890
2016-05-09T09:38:47.824Z,1905
2016-05-09T09:39:47.577Z,1890
2016-05-09T09:40:47.940Z,1890
2016-05-09T09:41:47.832Z,1925
2016-05-09T09:42:48.038Z,1950
2016-05-09T09:43:49.447Z,1925
2016-05-09T09:44:47.997Z,1910
2016-05-09T09:45:48.187Z,1900
2016-05-09T09:46:48.236Z,1925
2016-05-09T09:47:48.287Z,1955
2016-05-09T09:48:48.164Z,1975
2016-05-09T09:49:48.385Z,2000
2016-05-09T09:50:48.419Z,2050
2016-05-09T09:51:48.469Z,2040
2016-05-09T09:52:48.518Z,2005
2016-05-09T09:53:48.568Z,1980
2016-05-09T09:54:48.478Z,1950
2016-05-09T09:55:48.683Z,1950
2016-05-09T09:56:48.561Z,1970
2016-05-09T09:57:48.797Z,1985
2016-05-09T09:58:49.034Z,2015
2016-05-09T09:59:48.693Z,2075
2016-05-09T10:00:48.914Z,2090
2016-05-09T10:01:48.950Z,2120
2016-05-09T10:02:48.874Z,2100
2016-05-09T10:03:48.908Z,2060
2016-05-09T10:04:49.114Z,2040
2016-05-09T10:05:49.147Z,2020
2016-05-09T10:06:49.212Z,2000
2016-05-09T10:07:49.105Z,2005
2016-05-09T10:08:49.171Z,2025
2016-05-09T10:09:49.329Z,2015
2016-05-09T10:10:49.410Z,2005
2016-05-09T10:11:49.304Z,1985
2016-05-09T10:12:49.494Z,1960
2016-05-09T10:13:49.091Z,1975
2016-05-09T10:14:49.609Z,2000
2016-05-09T10:15:49.487Z,2025
2016-05-09T10:16:49.724Z,2010
2016-05-09T10:17:49.757Z,2005
2016-05-09T10:18:49.792Z,2000
2016-05-09T10:19:49.841Z,1975
2016-05-09T10:20:49.906Z,1970
2016-05-09T10:21:49.956Z,1940
2016-05-09T10:22:49.865Z,1955
2016-05-09T10:23:50.039Z,1990
2016-05-09T10:24:49.933Z,2020
2016-05-09T10:25:49.842Z,2055
2016-05-09T10:26:50.031Z,2100
2016-05-09T10:27:50.237Z,2105
2016-05-09T10:28:50.256Z,2085
2016-05-09T10:29:50.353Z,2040
2016-05-09T10:30:50.386Z,1990
2016-05-09T10:31:50.452Z,1935
2016-05-09T10:32:50.329Z,1945
2016-05-09T10:33:50.379Z,1925
2016-05-09T10:34:50.444Z,1905
2016-05-09T10:35:50.634Z,1880
2016-05-09T10:36:50.699Z,1880
2016-05-09T10:37:50.749Z,1880
2016-05-09T10:38:50.626Z,1860
2016-05-09T10:39:50.863Z,1855
2016-05-09T10:40:50.741Z,1820
2016-05-09T10:41:50.775Z,1770
2016-05-09T10:42:51.013Z,1745
2016-05-09T10:43:51.905Z,1755
2016-05-09T10:44:51.127Z,1770
2016-05-09T10:45:51.004Z,1745
2016-05-09T10:46:51.195Z,1710
2016-05-09T10:47:51.245Z,1685
2016-05-09T10:48:51.310Z,1685
2016-05-09T10:49:51.375Z,1685
2016-05-09T10:50:51.409Z,1720
2016-05-09T10:51:51.458Z,1770
2016-05-09T10:52:51.351Z,1820
2016-05-09T10:53:51.401Z,1890
2016-05-09T10:54:51.607Z,1890
2016-05-09T10:55:51.657Z,1960
2016-05-09T10:56:51.737Z,1995
2016-05-09T10:57:51.600Z,2000
2016-05-09T10:58:51.820Z,1975
2016-05-09T10:59:51.902Z,1990
2016-05-09T11:00:51.920Z,2005
2016-05-09T11:01:51.969Z,2035
2016-05-09T11:02:52.003Z,2080
2016-05-09T11:03:52.069Z,2125
2016-05-09T11:04:52.149Z,2120
2016-05-09T11:05:52.027Z,2070
2016-05-09T11:06:52.217Z,2005
2016-05-09T11:07:52.283Z,1960
2016-05-09T11:08:52.176Z,1945
2016-05-09T11:09:52.210Z,2005
2016-05-09T11:10:52.446Z,2065
2016-05-09T11:11:52.355Z,2080
2016-05-09T11:12:52.375Z,2080
2016-05-09T11:13:52.596Z,2075
2016-05-09T11:14:52.771Z,2030
2016-05-09T11:15:52.382Z,1920
2016-05-09T11:16:52.603Z,1830
2016-05-09T11:17:52.481Z,1760
2016-05-09T11:18:52.703Z,1685
2016-05-09T11:19:52.737Z,1675
2016-05-09T11:20:52.958Z,1730
2016-05-09T11:21:52.851Z,1735
2016-05-09T11:22:53.057Z,1765
2016-05-09T11:23:52.951Z,1780
2016-05-09T11:24:53.157Z,1850
2016-05-09T11:25:53.050Z,1930
2016-05-09T11:26:53.100Z,1985
2016-05-09T11:27:53.321Z,2050
2016-05-09T11:28:53.230Z,2080
2016-05-09T11:29:53.294Z,2060
2016-05-09T11:30:53.486Z,2060
2016-05-09T11:31:53.597Z,2060
2016-05-09T11:32:53.569Z,2070
2016-05-09T11:33:53.477Z,2065
2016-05-09T11:34:53.527Z,2020
2016-05-09T11:35:53.733Z,2025
2016-05-09T11:36:53.783Z,2020
2016-05-09T11:37:53.848Z,2005
2016-05-09T11:38:53.741Z,2000
2016-05-09T11:39:53.963Z,1985
2016-05-09T11:40:54.013Z,1940
2016-05-09T11:41:53.890Z,1890
2016-05-09T11:42:54.096Z,1865
2016-05-09T11:43:54.005Z,1840
2016-05-09T11:44:54.210Z,1865
2016-05-09T11:45:54.104Z,1935
2016-05-09T11:46:54.168Z,1990
2016-05-09T11:47:54.375Z,2045
2016-05-09T11:48:54.268Z,2030
2016-05-09T11:49:54.176Z,2085
2016-05-09T11:50:54.382Z,2025
2016-05-09T11:51:54.432Z,1935
2016-05-09T11:52:54.466Z,1845
2016-05-09T11:53:54.704Z,1800
2016-05-09T11:54:54.753Z,1810
2016-05-09T11:55:54.630Z,1905
2016-05-09T11:56:54.867Z,1980
2016-05-09T11:57:54.902Z,2030
2016-05-09T11:58:54.795Z,2065
2016-05-09T11:59:55.047Z,2105
2016-05-09T12:00:55.066Z,2135
2016-05-09T12:01:54.975Z,2155
2016-05-09T12:02:55.009Z,2150
2016-05-09T12:03:55.231Z,2140
2016-05-09T12:04:55.295Z,2100
2016-05-09T12:05:55.329Z,2070
2016-05-09T12:06:55.394Z,2075
2016-05-09T12:07:55.289Z,2100
2016-05-09T12:08:55.494Z,2105
2016-05-09T12:09:55.558Z,2055
2016-05-09T12:10:55.452Z,2030
2016-05-09T12:11:55.485Z,1975
2016-05-09T12:12:55.724Z,1960
2016-05-09T12:13:55.757Z,1980
2016-05-09T12:14:55.916Z,2005
2016-05-09T12:15:55.699Z,2015
2016-05-09T12:16:55.952Z,2060
2016-05-09T12:17:55.940Z,2055
2016-05-09T12:18:56.021Z,2065
2016-05-09T12:19:56.085Z,2040
2016-05-09T12:20:56.120Z,2040
2016-05-09T12:21:56.201Z,2025
2016-05-09T12:22:56.063Z,2065
2016-05-09T12:23:55.971Z,2070
2016-05-09T12:24:56.192Z,2085
2016-05-09T12:25:56.383Z,2080
2016-05-09T12:26:56.448Z,2075
2016-05-09T12:27:56.482Z,2090
2016-05-09T12:28:56.235Z,2105
2016-05-09T12:29:56.362Z,2075
2016-05-09T12:30:56.662Z,2020
2016-05-09T12:31:56.712Z,2015
2016-05-09T12:32:56.637Z,2025
2016-05-09T12:33:56.811Z,2065
2016-05-09T12:34:56.720Z,2090
2016-05-09T12:35:56.956Z,2090
2016-05-09T12:36:56.975Z,2075
2016-05-09T12:37:56.697Z,2085
2016-05-09T12:38:57.074Z,2105
2016-05-09T12:39:57.124Z,2075
2016-05-09T12:40:57.033Z,1815
2016-05-09T12:41:57.239Z,1655
2016-05-09T12:42:57.288Z,1570
2016-05-09T12:43:57.212Z,575
2016-05-09T12:44:59.247Z,1125
2016-05-09T12:45:57.469Z,775
2016-05-09T12:46:57.518Z,675
2016-05-09T12:47:57.568Z,735
2016-05-09T12:49:04.929Z,845
2016-05-09T12:49:57.511Z,460
2016-05-09T12:51:05.326Z,2030
2016-05-09T12:51:57.610Z,425
2016-05-09T12:52:57.518Z,1960
2016-05-09T12:53:57.770Z,1955
2016-05-09T12:54:57.493Z,1995
2016-05-09T12:55:57.840Z,2035
2016-05-09T12:56:57.717Z,2040
2016-05-09T12:57:58.095Z,1995
2016-05-09T12:58:57.987Z,1320
2016-05-09T12:59:58.100Z,1960
2016-05-09T13:00:58.087Z,1995
2016-05-09T13:01:58.137Z,2000
2016-05-09T13:02:58.342Z,1945
2016-05-09T13:03:58.439Z,1870
2016-05-09T13:04:58.300Z,1860
2016-05-09T13:05:58.553Z,1915
2016-05-09T13:06:58.619Z,1970
2016-05-09T13:07:58.278Z,1955
2016-05-09T13:08:58.655Z,1875
2016-05-09T13:09:58.548Z,1825
2016-05-09T13:10:58.754Z,1840
2016-05-09T13:11:58.647Z,1900
2016-05-09T13:12:58.713Z,1955
2016-05-09T13:13:58.778Z,1975
2016-05-09T13:14:58.953Z,2020
2016-05-09T13:15:58.877Z,2065
2016-05-09T13:16:59.067Z,2110
2016-05-09T13:17:59.148Z,2060
2016-05-09T13:18:59.183Z,1935
2016-05-09T13:19:59.263Z,1805
2016-05-09T13:20:58.985Z,1755
2016-05-09T13:21:59.330Z,1765
2016-05-09T13:22:59.412Z,1820
2016-05-09T13:23:59.460Z,1825
2016-05-09T13:24:59.496Z,1775
2016-05-09T13:25:59.545Z,1730
2016-05-09T13:26:59.594Z,1765
2016-05-09T13:27:59.378Z,1835
2016-05-09T13:28:59.724Z,1830
2016-05-09T13:29:59.446Z,1795
2016-05-09T13:30:59.512Z,1840
2016-05-09T13:31:59.764Z,1885
2016-05-09T13:32:59.767Z,1840
2016-05-09T13:34:00.003Z,1765
2016-05-09T13:34:59.882Z,1195
2016-05-09T13:36:03.400Z,255
2016-05-09T13:37:04.403Z,880
2016-05-09T13:38:00.186Z,1260
2016-05-09T13:39:00.251Z,730
2016-05-09T13:40:00.269Z,1290
2016-05-09T13:41:00.366Z,480
2016-05-09T13:42:00.400Z,1190
2016-05-09T13:43:00.294Z,940
2016-05-09T13:44:00.514Z,510
2016-05-09T13:45:00.627Z,480
2016-05-09T13:46:00.599Z,440
2016-05-09T13:47:00.476Z,360
2016-05-09T13:48:00.525Z,335
2016-05-09T13:49:00.590Z,465
2016-05-09T13:50:00.484Z,565
2016-05-09T13:51:00.830Z,355
2016-05-09T13:52:00.568Z,1515